sensor_id;sensor_type;location;lat;lon;timestamp;temperature;humidity
36186;DHT22;22228;53.222;7.446;2022-08-01T00:01:26;18.00;99.90
36186;DHT22;22228;53.222;7.446;2022-08-01T00:03:49;18.00;99.90
36186;DHT22;22228;53.222;7.446;2022-08-01T00:06:11;18.00;99.90
36186;DHT22;22228;53.222;7.446;2022-08-01T00:08:33;17.90;99.90
36186;DHT22;22228;53.222;7.446;2022-08-01T00:10:55;17.90;99.90
36186;DHT22;22228;53.222;7.446;2022-08-01T00:13:22;17.90;99.90
36186;DHT22;22228;53.222;7.446;2022-08-01T00:15:44;17.90;99.90
36186;DHT22;22228;53.222;7.446;2022-08-01T00:18:14;17.90;99.90
36186;DHT22;22228;53.222;7.446;2022-08-01T00:20:37;17.90;99.90
36186;DHT22;22228;53.222;7.446;2022-08-01T00:23:02;17.90;99.90
36186;DHT22;22228;53.222;7.446;2022-08-01T00:25:24;17.90;99.90
36186;DHT22;22228;53.222;7.446;2022-08-01T00:27:54;17.90;99.90
36186;DHT22;22228;53.222;7.446;2022-08-01T00:30:15;17.90;99.90
36186;DHT22;22228;53.222;7.446;2022-08-01T00:32:37;17.90;99.90
36186;DHT22;22228;53.222;7.446;2022-08-01T00:34:59;17.90;99.90
36186;DHT22;22228;53.222;7.446;2022-08-01T00:37:23;17.90;99.90
36186;DHT22;22228;53.222;7.446;2022-08-01T00:39:45;18.00;99.90
36186;DHT22;22228;53.222;7.446;2022-08-01T00:42:07;18.00;99.90
36186;DHT22;22228;53.222;7.446;2022-08-01T00:44:30;17.90;99.90
36186;DHT22;22228;53.222;7.446;2022-08-01T00:46:52;17.90;99.90
36186;DHT22;22228;53.222;7.446;2022-08-01T00:49:13;17.90;99.90
36186;DHT22;22228;53.222;7.446;2022-08-01T00:51:35;17.90;99.90
36186;DHT22;22228;53.222;7.446;2022-08-01T00:53:59;17.90;99.90
36186;DHT22;22228;53.222;7.446;2022-08-01T00:56:25;17.90;99.90
36186;DHT22;22228;53.222;7.446;2022-08-01T00:58:47;17.90;99.90
36186;DHT22;22228;53.222;7.446;2022-08-01T01:01:10;17.90;99.90
36186;DHT22;22228;53.222;7.446;2022-08-01T01:03:32;17.80;99.90
36186;DHT22;22228;53.222;7.446;2022-08-01T01:06:32;17.80;99.90
36186;DHT22;22228;53.222;7.446;2022-08-01T01:09:17;17.70;99.90
36186;DHT22;22228;53.222;7.446;2022-08-01T01:11:46;17.70;99.90
36186;DHT22;22228;53.222;7.446;2022-08-01T01:14:13;17.60;99.90
36186;DHT22;22228;53.222;7.446;2022-08-01T01:16:42;17.60;99.90
36186;DHT22;22228;53.222;7.446;2022-08-01T01:19:10;17.60;99.90
36186;DHT22;22228;53.222;7.446;2022-08-01T01:21:47;17.60;99.90
36186;DHT22;22228;53.222;7.446;2022-08-01T01:24:21;17.60;99.90
36186;DHT22;22228;53.222;7.446;2022-08-01T01:26:53;17.60;99.90
36186;DHT22;22228;53.222;7.446;2022-08-01T01:29:21;17.60;99.90
36186;DHT22;22228;53.222;7.446;2022-08-01T01:31:49;17.50;99.90
36186;DHT22;22228;53.222;7.446;2022-08-01T01:34:13;17.40;99.90
36186;DHT22;22228;53.222;7.446;2022-08-01T01:36:37;17.30;99.90
36186;DHT22;22228;53.222;7.446;2022-08-01T01:39:00;17.30;99.90
36186;DHT22;22228;53.222;7.446;2022-08-01T01:41:24;17.20;99.90
36186;DHT22;22228;53.222;7.446;2022-08-01T01:43:47;17.20;99.90
36186;DHT22;22228;53.222;7.446;2022-08-01T01:46:13;17.20;99.90
36186;DHT22;22228;53.222;7.446;2022-08-01T01:48:37;17.10;99.90
36186;DHT22;22228;53.222;7.446;2022-08-01T01:51:00;17.10;99.90
36186;DHT22;22228;53.222;7.446;2022-08-01T01:53:23;17.20;99.90
36186;DHT22;22228;53.222;7.446;2022-08-01T01:55:48;17.20;99.90
36186;DHT22;22228;53.222;7.446;2022-08-01T01:58:12;17.10;99.90
36186;DHT22;22228;53.222;7.446;2022-08-01T02:00:35;17.00;99.90
36186;DHT22;22228;53.222;7.446;2022-08-01T02:03:01;17.00;99.90
36186;DHT22;22228;53.222;7.446;2022-08-01T02:05:25;17.10;99.90
36186;DHT22;22228;53.222;7.446;2022-08-01T02:07:49;17.10;99.90
36186;DHT22;22228;53.222;7.446;2022-08-01T02:10:19;17.10;99.90
36186;DHT22;22228;53.222;7.446;2022-08-01T02:12:49;17.10;99.90
36186;DHT22;22228;53.222;7.446;2022-08-01T02:15:13;17.10;99.90
36186;DHT22;22228;53.222;7.446;2022-08-01T02:17:39;17.10;99.90
36186;DHT22;22228;53.222;7.446;2022-08-01T02:20:05;17.10;99.90
36186;DHT22;22228;53.222;7.446;2022-08-01T02:22:30;17.10;99.90
36186;DHT22;22228;53.222;7.446;2022-08-01T02:24:58;17.10;99.90
36186;DHT22;22228;53.222;7.446;2022-08-01T02:27:25;17.00;99.90
36186;DHT22;22228;53.222;7.446;2022-08-01T02:29:53;17.00;99.90
36186;DHT22;22228;53.222;7.446;2022-08-01T02:32:22;17.00;99.90
36186;DHT22;22228;53.222;7.446;2022-08-01T02:34:46;17.00;99.90
36186;DHT22;22228;53.222;7.446;2022-08-01T02:37:12;17.00;99.90
36186;DHT22;22228;53.222;7.446;2022-08-01T02:39:36;17.00;99.90
36186;DHT22;22228;53.222;7.446;2022-08-01T02:42:04;16.90;99.90
36186;DHT22;22228;53.222;7.446;2022-08-01T02:44:31;16.90;99.90
36186;DHT22;22228;53.222;7.446;2022-08-01T02:46:57;16.90;99.90
36186;DHT22;22228;53.222;7.446;2022-08-01T02:49:23;16.80;99.90
36186;DHT22;22228;53.222;7.446;2022-08-01T02:51:47;16.80;99.90
36186;DHT22;22228;53.222;7.446;2022-08-01T02:54:11;16.80;99.90
36186;DHT22;22228;53.222;7.446;2022-08-01T02:56:34;16.80;99.90
36186;DHT22;22228;53.222;7.446;2022-08-01T02:58:56;16.80;99.90
36186;DHT22;22228;53.222;7.446;2022-08-01T03:01:19;16.70;99.90
36186;DHT22;22228;53.222;7.446;2022-08-01T03:03:45;16.70;99.90
36186;DHT22;22228;53.222;7.446;2022-08-01T03:06:08;16.70;99.90
36186;DHT22;22228;53.222;7.446;2022-08-01T03:08:30;16.70;99.90
36186;DHT22;22228;53.222;7.446;2022-08-01T03:10:55;16.70;99.90
36186;DHT22;22228;53.222;7.446;2022-08-01T03:13:20;16.70;99.90
36186;DHT22;22228;53.222;7.446;2022-08-01T03:15:44;16.70;99.90
36186;DHT22;22228;53.222;7.446;2022-08-01T03:18:09;16.60;99.90
36186;DHT22;22228;53.222;7.446;2022-08-01T03:20:33;16.60;99.90
36186;DHT22;22228;53.222;7.446;2022-08-01T03:22:56;16.60;99.90
36186;DHT22;22228;53.222;7.446;2022-08-01T03:25:20;16.60;99.90
36186;DHT22;22228;53.222;7.446;2022-08-01T03:27:46;16.70;99.90
36186;DHT22;22228;53.222;7.446;2022-08-01T03:30:10;16.60;99.90
36186;DHT22;22228;53.222;7.446;2022-08-01T03:32:33;16.60;99.90
36186;DHT22;22228;53.222;7.446;2022-08-01T03:34:56;16.60;99.90
36186;DHT22;22228;53.222;7.446;2022-08-01T03:37:23;16.60;99.90
36186;DHT22;22228;53.222;7.446;2022-08-01T03:39:49;16.60;99.90
36186;DHT22;22228;53.222;7.446;2022-08-01T03:42:15;16.60;99.90
36186;DHT22;22228;53.222;7.446;2022-08-01T03:44:39;16.50;99.90
36186;DHT22;22228;53.222;7.446;2022-08-01T03:47:06;16.50;99.90
36186;DHT22;22228;53.222;7.446;2022-08-01T03:49:31;16.40;99.90
36186;DHT22;22228;53.222;7.446;2022-08-01T03:51:54;16.30;99.90
36186;DHT22;22228;53.222;7.446;2022-08-01T03:54:21;16.30;99.90
36186;DHT22;22228;53.222;7.446;2022-08-01T03:56:46;16.30;99.90
36186;DHT22;22228;53.222;7.446;2022-08-01T03:59:10;16.30;99.90
36186;DHT22;22228;53.222;7.446;2022-08-01T04:01:33;16.30;99.90
36186;DHT22;22228;53.222;7.446;2022-08-01T04:03:58;16.20;99.90
36186;DHT22;22228;53.222;7.446;2022-08-01T04:06:20;16.10;99.90
36186;DHT22;22228;53.222;7.446;2022-08-01T04:08:43;16.10;99.90
36186;DHT22;22228;53.222;7.446;2022-08-01T04:11:15;16.20;99.90
36186;DHT22;22228;53.222;7.446;2022-08-01T04:13:37;16.10;99.90
36186;DHT22;22228;53.222;7.446;2022-08-01T04:16:04;16.10;99.90
36186;DHT22;22228;53.222;7.446;2022-08-01T04:18:28;16.10;99.90
36186;DHT22;22228;53.222;7.446;2022-08-01T04:20:50;16.10;99.90
36186;DHT22;22228;53.222;7.446;2022-08-01T04:23:13;16.10;99.90
36186;DHT22;22228;53.222;7.446;2022-08-01T04:25:36;16.10;99.90
36186;DHT22;22228;53.222;7.446;2022-08-01T04:28:01;16.10;99.90
36186;DHT22;22228;53.222;7.446;2022-08-01T04:30:27;16.10;99.90
36186;DHT22;22228;53.222;7.446;2022-08-01T04:32:52;16.10;99.90
36186;DHT22;22228;53.222;7.446;2022-08-01T04:35:18;16.10;99.90
36186;DHT22;22228;53.222;7.446;2022-08-01T04:38:01;16.10;99.90
36186;DHT22;22228;53.222;7.446;2022-08-01T04:40:24;16.00;99.90
36186;DHT22;22228;53.222;7.446;2022-08-01T04:42:48;16.00;99.90
36186;DHT22;22228;53.222;7.446;2022-08-01T04:45:11;15.90;99.90
36186;DHT22;22228;53.222;7.446;2022-08-01T04:47:36;15.70;99.90
36186;DHT22;22228;53.222;7.446;2022-08-01T04:49:59;15.70;99.90
36186;DHT22;22228;53.222;7.446;2022-08-01T04:52:22;15.60;99.90
36186;DHT22;22228;53.222;7.446;2022-08-01T04:54:45;15.50;99.90
36186;DHT22;22228;53.222;7.446;2022-08-01T04:57:08;15.50;99.90
36186;DHT22;22228;53.222;7.446;2022-08-01T04:59:30;15.40;99.90
36186;DHT22;22228;53.222;7.446;2022-08-01T05:02:01;15.40;99.90
36186;DHT22;22228;53.222;7.446;2022-08-01T05:04:24;15.30;99.90
36186;DHT22;22228;53.222;7.446;2022-08-01T05:06:46;15.20;99.90
36186;DHT22;22228;53.222;7.446;2022-08-01T05:09:09;15.20;99.90
36186;DHT22;22228;53.222;7.446;2022-08-01T05:11:31;15.20;99.90
36186;DHT22;22228;53.222;7.446;2022-08-01T05:13:53;15.20;99.90
36186;DHT22;22228;53.222;7.446;2022-08-01T05:16:15;15.20;99.90
36186;DHT22;22228;53.222;7.446;2022-08-01T05:18:38;15.20;99.90
36186;DHT22;22228;53.222;7.446;2022-08-01T05:21:00;15.10;99.90
36186;DHT22;22228;53.222;7.446;2022-08-01T05:23:22;15.20;99.90
36186;DHT22;22228;53.222;7.446;2022-08-01T05:26:04;15.10;99.90
36186;DHT22;22228;53.222;7.446;2022-08-01T05:28:26;15.20;99.90
36186;DHT22;22228;53.222;7.446;2022-08-01T05:30:48;15.10;99.90
36186;DHT22;22228;53.222;7.446;2022-08-01T05:33:10;15.20;99.90
36186;DHT22;22228;53.222;7.446;2022-08-01T05:35:32;15.20;99.90
36186;DHT22;22228;53.222;7.446;2022-08-01T05:38:09;15.20;99.90
36186;DHT22;22228;53.222;7.446;2022-08-01T05:40:35;15.20;99.90
36186;DHT22;22228;53.222;7.446;2022-08-01T05:42:58;15.20;99.90
36186;DHT22;22228;53.222;7.446;2022-08-01T05:45:20;15.20;99.90
36186;DHT22;22228;53.222;7.446;2022-08-01T05:47:43;15.20;99.90
36186;DHT22;22228;53.222;7.446;2022-08-01T05:50:05;15.30;99.90
36186;DHT22;22228;53.222;7.446;2022-08-01T05:52:28;15.30;99.90
36186;DHT22;22228;53.222;7.446;2022-08-01T05:54:51;15.40;99.90
36186;DHT22;22228;53.222;7.446;2022-08-01T05:57:13;15.40;99.90
36186;DHT22;22228;53.222;7.446;2022-08-01T05:59:36;15.40;99.90
36186;DHT22;22228;53.222;7.446;2022-08-01T06:01:58;15.50;99.90
36186;DHT22;22228;53.222;7.446;2022-08-01T06:04:20;15.50;99.90
36186;DHT22;22228;53.222;7.446;2022-08-01T06:06:42;15.60;99.90
36186;DHT22;22228;53.222;7.446;2022-08-01T06:09:04;15.70;99.90
36186;DHT22;22228;53.222;7.446;2022-08-01T06:11:26;15.80;99.90
36186;DHT22;22228;53.222;7.446;2022-08-01T06:13:49;15.90;99.90
36186;DHT22;22228;53.222;7.446;2022-08-01T06:16:12;15.90;99.90
36186;DHT22;22228;53.222;7.446;2022-08-01T06:18:35;16.00;99.90
36186;DHT22;22228;53.222;7.446;2022-08-01T06:20:57;16.00;99.90
36186;DHT22;22228;53.222;7.446;2022-08-01T06:23:20;16.10;99.90
36186;DHT22;22228;53.222;7.446;2022-08-01T06:25:53;16.10;99.90
36186;DHT22;22228;53.222;7.446;2022-08-01T06:28:15;16.20;99.90
36186;DHT22;22228;53.222;7.446;2022-08-01T06:30:37;16.20;99.90
36186;DHT22;22228;53.222;7.446;2022-08-01T06:33:00;16.30;99.90
36186;DHT22;22228;53.222;7.446;2022-08-01T06:35:23;16.40;99.90
36186;DHT22;22228;53.222;7.446;2022-08-01T06:37:46;16.60;99.90
36186;DHT22;22228;53.222;7.446;2022-08-01T06:40:10;16.70;99.90
36186;DHT22;22228;53.222;7.446;2022-08-01T06:42:37;16.90;99.90
36186;DHT22;22228;53.222;7.446;2022-08-01T06:45:00;17.00;99.90
36186;DHT22;22228;53.222;7.446;2022-08-01T06:47:22;17.10;99.90
36186;DHT22;22228;53.222;7.446;2022-08-01T06:49:45;17.20;99.90
36186;DHT22;22228;53.222;7.446;2022-08-01T06:52:07;17.20;99.90
36186;DHT22;22228;53.222;7.446;2022-08-01T06:54:30;17.30;99.90
36186;DHT22;22228;53.222;7.446;2022-08-01T06:56:51;17.40;99.90
36186;DHT22;22228;53.222;7.446;2022-08-01T06:59:13;17.40;99.90
36186;DHT22;22228;53.222;7.446;2022-08-01T07:01:35;17.50;99.90
36186;DHT22;22228;53.222;7.446;2022-08-01T07:03:59;17.50;99.90
36186;DHT22;22228;53.222;7.446;2022-08-01T07:06:23;17.60;99.90
36186;DHT22;22228;53.222;7.446;2022-08-01T07:08:45;17.70;99.90
36186;DHT22;22228;53.222;7.446;2022-08-01T07:11:08;17.70;99.90
36186;DHT22;22228;53.222;7.446;2022-08-01T07:13:30;17.80;99.90
36186;DHT22;22228;53.222;7.446;2022-08-01T07:16:05;17.80;99.90
36186;DHT22;22228;53.222;7.446;2022-08-01T07:18:28;17.90;99.90
36186;DHT22;22228;53.222;7.446;2022-08-01T07:20:50;17.90;99.90
36186;DHT22;22228;53.222;7.446;2022-08-01T07:23:14;18.10;99.90
36186;DHT22;22228;53.222;7.446;2022-08-01T07:25:41;18.20;99.90
36186;DHT22;22228;53.222;7.446;2022-08-01T07:28:12;18.20;99.90
36186;DHT22;22228;53.222;7.446;2022-08-01T07:30:34;18.30;99.90
36186;DHT22;22228;53.222;7.446;2022-08-01T07:32:56;18.40;99.90
36186;DHT22;22228;53.222;7.446;2022-08-01T07:35:19;18.50;99.90
36186;DHT22;22228;53.222;7.446;2022-08-01T07:37:41;18.50;99.90
36186;DHT22;22228;53.222;7.446;2022-08-01T07:40:11;18.50;99.90
36186;DHT22;22228;53.222;7.446;2022-08-01T07:42:33;18.50;99.90
36186;DHT22;22228;53.222;7.446;2022-08-01T07:44:55;18.40;99.90
36186;DHT22;22228;53.222;7.446;2022-08-01T07:47:23;18.30;99.90
36186;DHT22;22228;53.222;7.446;2022-08-01T07:49:45;18.20;99.90
36186;DHT22;22228;53.222;7.446;2022-08-01T07:52:08;18.20;99.90
36186;DHT22;22228;53.222;7.446;2022-08-01T07:54:30;18.20;99.90
36186;DHT22;22228;53.222;7.446;2022-08-01T07:56:55;18.20;99.90
36186;DHT22;22228;53.222;7.446;2022-08-01T07:59:17;18.30;99.90
36186;DHT22;22228;53.222;7.446;2022-08-01T08:01:46;18.20;99.90
36186;DHT22;22228;53.222;7.446;2022-08-01T08:04:08;18.20;99.90
36186;DHT22;22228;53.222;7.446;2022-08-01T08:06:30;18.30;99.90
36186;DHT22;22228;53.222;7.446;2022-08-01T08:08:52;18.30;99.90
36186;DHT22;22228;53.222;7.446;2022-08-01T08:11:14;18.40;99.90
36186;DHT22;22228;53.222;7.446;2022-08-01T08:13:38;18.40;99.90
36186;DHT22;22228;53.222;7.446;2022-08-01T08:16:00;18.40;99.90
36186;DHT22;22228;53.222;7.446;2022-08-01T08:18:22;18.50;99.90
36186;DHT22;22228;53.222;7.446;2022-08-01T08:20:44;18.60;99.90
36186;DHT22;22228;53.222;7.446;2022-08-01T08:23:10;18.70;99.90
36186;DHT22;22228;53.222;7.446;2022-08-01T08:26:03;18.60;99.90
36186;DHT22;22228;53.222;7.446;2022-08-01T08:28:24;18.60;99.90
36186;DHT22;22228;53.222;7.446;2022-08-01T08:30:49;18.50;99.90
36186;DHT22;22228;53.222;7.446;2022-08-01T08:33:11;18.30;99.90
36186;DHT22;22228;53.222;7.446;2022-08-01T08:35:33;18.50;99.90
36186;DHT22;22228;53.222;7.446;2022-08-01T08:38:14;18.70;99.90
36186;DHT22;22228;53.222;7.446;2022-08-01T08:40:36;18.90;99.90
36186;DHT22;22228;53.222;7.446;2022-08-01T08:43:00;18.90;99.90
36186;DHT22;22228;53.222;7.446;2022-08-01T08:45:22;18.60;99.90
36186;DHT22;22228;53.222;7.446;2022-08-01T08:48:06;18.50;99.90
36186;DHT22;22228;53.222;7.446;2022-08-01T08:50:29;18.50;99.90
36186;DHT22;22228;53.222;7.446;2022-08-01T08:52:52;18.60;99.90
36186;DHT22;22228;53.222;7.446;2022-08-01T08:55:16;18.80;99.90
36186;DHT22;22228;53.222;7.446;2022-08-01T08:57:40;19.00;99.90
36186;DHT22;22228;53.222;7.446;2022-08-01T09:00:05;19.10;99.90
36186;DHT22;22228;53.222;7.446;2022-08-01T09:02:28;19.20;99.90
36186;DHT22;22228;53.222;7.446;2022-08-01T09:04:52;19.30;99.90
36186;DHT22;22228;53.222;7.446;2022-08-01T09:07:14;19.40;99.90
36186;DHT22;22228;53.222;7.446;2022-08-01T09:09:36;19.40;99.90
36186;DHT22;22228;53.222;7.446;2022-08-01T09:12:02;19.30;99.90
36186;DHT22;22228;53.222;7.446;2022-08-01T09:14:24;19.00;99.90
36186;DHT22;22228;53.222;7.446;2022-08-01T09:16:59;19.00;99.90
36186;DHT22;22228;53.222;7.446;2022-08-01T09:19:22;19.10;99.90
36186;DHT22;22228;53.222;7.446;2022-08-01T09:22:03;19.00;99.90
36186;DHT22;22228;53.222;7.446;2022-08-01T09:24:27;19.00;99.90
36186;DHT22;22228;53.222;7.446;2022-08-01T09:26:50;19.10;99.90
36186;DHT22;22228;53.222;7.446;2022-08-01T09:29:18;19.20;99.90
36186;DHT22;22228;53.222;7.446;2022-08-01T09:31:58;19.40;99.90
36186;DHT22;22228;53.222;7.446;2022-08-01T09:34:27;19.70;99.90
36186;DHT22;22228;53.222;7.446;2022-08-01T09:36:50;19.80;99.90
36186;DHT22;22228;53.222;7.446;2022-08-01T09:39:16;19.80;99.90
36186;DHT22;22228;53.222;7.446;2022-08-01T09:41:38;19.70;99.90
36186;DHT22;22228;53.222;7.446;2022-08-01T09:44:00;19.70;99.90
36186;DHT22;22228;53.222;7.446;2022-08-01T09:46:22;19.80;99.90
36186;DHT22;22228;53.222;7.446;2022-08-01T09:48:55;19.70;99.90
36186;DHT22;22228;53.222;7.446;2022-08-01T09:51:28;19.70;99.90
36186;DHT22;22228;53.222;7.446;2022-08-01T09:54:10;19.90;99.90
36186;DHT22;22228;53.222;7.446;2022-08-01T09:56:40;20.30;99.90
36186;DHT22;22228;53.222;7.446;2022-08-01T09:59:03;20.70;99.90
36186;DHT22;22228;53.222;7.446;2022-08-01T10:01:27;20.90;99.90
36186;DHT22;22228;53.222;7.446;2022-08-01T10:04:05;20.70;99.90
36186;DHT22;22228;53.222;7.446;2022-08-01T10:06:30;20.60;99.90
36186;DHT22;22228;53.222;7.446;2022-08-01T10:08:52;20.50;99.90
36186;DHT22;22228;53.222;7.446;2022-08-01T10:11:14;20.50;99.90
36186;DHT22;22228;53.222;7.446;2022-08-01T10:13:39;20.50;99.90
36186;DHT22;22228;53.222;7.446;2022-08-01T10:16:03;20.70;99.90
36186;DHT22;22228;53.222;7.446;2022-08-01T10:18:28;21.00;99.90
36186;DHT22;22228;53.222;7.446;2022-08-01T10:20:53;21.20;99.90
36186;DHT22;22228;53.222;7.446;2022-08-01T10:23:17;21.20;99.90
36186;DHT22;22228;53.222;7.446;2022-08-01T10:25:41;21.10;99.90
36186;DHT22;22228;53.222;7.446;2022-08-01T10:28:13;21.30;99.90
36186;DHT22;22228;53.222;7.446;2022-08-01T10:30:43;21.50;99.90
36186;DHT22;22228;53.222;7.446;2022-08-01T10:33:06;21.60;99.90
36186;DHT22;22228;53.222;7.446;2022-08-01T10:35:28;21.60;99.90
36186;DHT22;22228;53.222;7.446;2022-08-01T10:38:08;21.50;99.90
36186;DHT22;22228;53.222;7.446;2022-08-01T10:40:34;21.50;99.90
36186;DHT22;22228;53.222;7.446;2022-08-01T10:42:57;21.60;99.90
36186;DHT22;22228;53.222;7.446;2022-08-01T10:45:20;21.50;99.90
36186;DHT22;22228;53.222;7.446;2022-08-01T10:47:47;21.40;99.90
36186;DHT22;22228;53.222;7.446;2022-08-01T10:50:16;21.20;99.90
36186;DHT22;22228;53.222;7.446;2022-08-01T10:53:06;21.30;99.90
36186;DHT22;22228;53.222;7.446;2022-08-01T10:55:48;21.70;99.90
36186;DHT22;22228;53.222;7.446;2022-08-01T10:58:10;21.50;99.90
36186;DHT22;22228;53.222;7.446;2022-08-01T11:00:35;21.30;99.90
36186;DHT22;22228;53.222;7.446;2022-08-01T11:03:03;21.10;99.90
36186;DHT22;22228;53.222;7.446;2022-08-01T11:05:25;21.50;99.90
36186;DHT22;22228;53.222;7.446;2022-08-01T11:07:53;21.40;99.90
36186;DHT22;22228;53.222;7.446;2022-08-01T11:10:22;21.10;99.90
36186;DHT22;22228;53.222;7.446;2022-08-01T11:12:45;20.90;99.90
36186;DHT22;22228;53.222;7.446;2022-08-01T11:15:24;21.40;99.90
36186;DHT22;22228;53.222;7.446;2022-08-01T11:17:51;22.10;99.90
36186;DHT22;22228;53.222;7.446;2022-08-01T11:20:17;22.70;99.90
36186;DHT22;22228;53.222;7.446;2022-08-01T11:26:10;21.90;99.90
36186;DHT22;22228;53.222;7.446;2022-08-01T11:28:33;22.10;99.90
36186;DHT22;22228;53.222;7.446;2022-08-01T11:31:25;21.80;99.90
36186;DHT22;22228;53.222;7.446;2022-08-01T11:33:48;21.40;99.90
36186;DHT22;22228;53.222;7.446;2022-08-01T11:36:19;22.00;99.90
36186;DHT22;22228;53.222;7.446;2022-08-01T11:39:12;22.80;99.90
36186;DHT22;22228;53.222;7.446;2022-08-01T11:41:35;22.70;99.90
36186;DHT22;22228;53.222;7.446;2022-08-01T11:44:02;22.70;99.90
36186;DHT22;22228;53.222;7.446;2022-08-01T11:46:57;22.20;99.90
36186;DHT22;22228;53.222;7.446;2022-08-01T11:49:45;22.10;99.90
36186;DHT22;22228;53.222;7.446;2022-08-01T11:52:12;22.70;99.90
36186;DHT22;22228;53.222;7.446;2022-08-01T11:54:38;23.10;99.90
36186;DHT22;22228;53.222;7.446;2022-08-01T11:57:05;23.20;99.90
36186;DHT22;22228;53.222;7.446;2022-08-01T11:59:35;23.70;99.90
36186;DHT22;22228;53.222;7.446;2022-08-01T12:02:20;23.10;99.90
36186;DHT22;22228;53.222;7.446;2022-08-01T12:04:54;22.80;99.90
36186;DHT22;22228;53.222;7.446;2022-08-01T12:07:18;22.60;99.90
36186;DHT22;22228;53.222;7.446;2022-08-01T12:09:41;23.20;99.90
36186;DHT22;22228;53.222;7.446;2022-08-01T12:12:03;23.50;99.90
36186;DHT22;22228;53.222;7.446;2022-08-01T12:14:25;22.90;99.90
36186;DHT22;22228;53.222;7.446;2022-08-01T12:16:53;23.00;99.90
36186;DHT22;22228;53.222;7.446;2022-08-01T12:19:21;23.30;99.90
36186;DHT22;22228;53.222;7.446;2022-08-01T12:21:43;23.70;99.90
36186;DHT22;22228;53.222;7.446;2022-08-01T12:24:06;23.70;99.90
36186;DHT22;22228;53.222;7.446;2022-08-01T12:26:39;24.10;99.90
36186;DHT22;22228;53.222;7.446;2022-08-01T12:29:01;24.10;99.90
36186;DHT22;22228;53.222;7.446;2022-08-01T12:31:31;23.80;99.90
36186;DHT22;22228;53.222;7.446;2022-08-01T12:33:53;23.40;99.90
36186;DHT22;22228;53.222;7.446;2022-08-01T12:36:27;23.30;99.90
36186;DHT22;22228;53.222;7.446;2022-08-01T12:38:52;23.00;99.90
36186;DHT22;22228;53.222;7.446;2022-08-01T12:41:15;23.00;99.90
36186;DHT22;22228;53.222;7.446;2022-08-01T12:43:40;22.80;99.90
36186;DHT22;22228;53.222;7.446;2022-08-01T12:46:02;23.30;99.90
36186;DHT22;22228;53.222;7.446;2022-08-01T12:48:25;23.00;99.90
36186;DHT22;22228;53.222;7.446;2022-08-01T12:50:48;22.90;99.90
36186;DHT22;22228;53.222;7.446;2022-08-01T12:53:10;23.30;99.90
36186;DHT22;22228;53.222;7.446;2022-08-01T12:55:44;23.60;99.90
36186;DHT22;22228;53.222;7.446;2022-08-01T12:58:22;24.00;99.90
36186;DHT22;22228;53.222;7.446;2022-08-01T13:00:45;24.30;99.90
36186;DHT22;22228;53.222;7.446;2022-08-01T13:03:08;23.80;99.90
36186;DHT22;22228;53.222;7.446;2022-08-01T13:05:41;23.80;99.90
36186;DHT22;22228;53.222;7.446;2022-08-01T13:08:09;24.10;99.90
36186;DHT22;22228;53.222;7.446;2022-08-01T13:10:32;24.30;99.90
36186;DHT22;22228;53.222;7.446;2022-08-01T13:12:55;23.80;99.90
36186;DHT22;22228;53.222;7.446;2022-08-01T13:15:21;23.60;99.90
36186;DHT22;22228;53.222;7.446;2022-08-01T13:17:45;23.70;99.90
36186;DHT22;22228;53.222;7.446;2022-08-01T13:20:08;23.70;99.90
36186;DHT22;22228;53.222;7.446;2022-08-01T13:22:33;24.40;99.90
36186;DHT22;22228;53.222;7.446;2022-08-01T13:25:09;24.90;99.90
36186;DHT22;22228;53.222;7.446;2022-08-01T13:27:34;24.80;99.90
36186;DHT22;22228;53.222;7.446;2022-08-01T13:30:10;25.00;99.90
36186;DHT22;22228;53.222;7.446;2022-08-01T13:32:34;25.70;99.90
36186;DHT22;22228;53.222;7.446;2022-08-01T13:35:03;25.90;99.90
36186;DHT22;22228;53.222;7.446;2022-08-01T13:37:26;26.20;99.90
36186;DHT22;22228;53.222;7.446;2022-08-01T13:39:47;26.40;99.90
36186;DHT22;22228;53.222;7.446;2022-08-01T13:42:11;26.90;99.90
36186;DHT22;22228;53.222;7.446;2022-08-01T13:44:39;26.60;99.90
36186;DHT22;22228;53.222;7.446;2022-08-01T13:47:01;27.10;99.90
36186;DHT22;22228;53.222;7.446;2022-08-01T13:49:38;27.70;99.90
36186;DHT22;22228;53.222;7.446;2022-08-01T13:52:02;27.10;99.90
36186;DHT22;22228;53.222;7.446;2022-08-01T13:54:27;26.50;99.90
36186;DHT22;22228;53.222;7.446;2022-08-01T13:56:50;26.40;99.90
36186;DHT22;22228;53.222;7.446;2022-08-01T13:59:12;26.60;99.90
36186;DHT22;22228;53.222;7.446;2022-08-01T14:01:35;26.50;99.90
36186;DHT22;22228;53.222;7.446;2022-08-01T14:03:57;26.50;99.90
36186;DHT22;22228;53.222;7.446;2022-08-01T14:06:20;26.50;99.90
36186;DHT22;22228;53.222;7.446;2022-08-01T14:08:43;25.90;99.90
36186;DHT22;22228;53.222;7.446;2022-08-01T14:11:07;25.20;99.90
36186;DHT22;22228;53.222;7.446;2022-08-01T14:13:30;25.50;99.90
36186;DHT22;22228;53.222;7.446;2022-08-01T14:15:57;25.60;99.90
36186;DHT22;22228;53.222;7.446;2022-08-01T14:18:19;25.70;99.90
36186;DHT22;22228;53.222;7.446;2022-08-01T14:20:45;25.10;99.90
36186;DHT22;22228;53.222;7.446;2022-08-01T14:23:11;25.40;99.90
36186;DHT22;22228;53.222;7.446;2022-08-01T14:25:33;25.10;99.90
36186;DHT22;22228;53.222;7.446;2022-08-01T14:28:15;25.60;99.90
36186;DHT22;22228;53.222;7.446;2022-08-01T14:30:37;25.00;99.90
36186;DHT22;22228;53.222;7.446;2022-08-01T14:33:02;25.40;99.90
36186;DHT22;22228;53.222;7.446;2022-08-01T14:35:24;25.10;99.90
36186;DHT22;22228;53.222;7.446;2022-08-01T14:37:46;24.60;99.90
36186;DHT22;22228;53.222;7.446;2022-08-01T14:40:10;24.40;99.90
36186;DHT22;22228;53.222;7.446;2022-08-01T14:42:32;23.40;99.90
36186;DHT22;22228;53.222;7.446;2022-08-01T14:44:55;23.30;99.90
36186;DHT22;22228;53.222;7.446;2022-08-01T14:47:17;23.00;99.90
36186;DHT22;22228;53.222;7.446;2022-08-01T14:49:42;23.20;99.90
36186;DHT22;22228;53.222;7.446;2022-08-01T14:52:05;23.60;99.90
36186;DHT22;22228;53.222;7.446;2022-08-01T14:54:28;23.40;99.90
36186;DHT22;22228;53.222;7.446;2022-08-01T14:56:51;23.30;99.90
36186;DHT22;22228;53.222;7.446;2022-08-01T14:59:14;23.20;99.90
36186;DHT22;22228;53.222;7.446;2022-08-01T15:01:42;23.00;99.90
36186;DHT22;22228;53.222;7.446;2022-08-01T15:04:04;23.60;99.90
36186;DHT22;22228;53.222;7.446;2022-08-01T15:06:29;24.70;99.90
36186;DHT22;22228;53.222;7.446;2022-08-01T15:08:51;24.80;99.90
36186;DHT22;22228;53.222;7.446;2022-08-01T15:11:13;24.10;99.90
36186;DHT22;22228;53.222;7.446;2022-08-01T15:13:36;23.60;99.90
36186;DHT22;22228;53.222;7.446;2022-08-01T15:16:03;23.50;99.90
36186;DHT22;22228;53.222;7.446;2022-08-01T15:18:25;23.30;99.90
36186;DHT22;22228;53.222;7.446;2022-08-01T15:20:47;22.90;99.90
36186;DHT22;22228;53.222;7.446;2022-08-01T15:23:09;22.40;99.90